createdAt,value
2023-03-16T00:00:22.151Z,-0.49
2023-03-16T00:01:23.031Z,-0.47
2023-03-16T00:02:24.024Z,-0.47
2023-03-16T00:03:24.954Z,-0.46
2023-03-16T00:04:25.810Z,-0.47
2023-03-16T00:05:26.697Z,-0.49
2023-03-16T00:06:27.580Z,-0.46
2023-03-16T00:07:28.461Z,-0.47
2023-03-16T00:08:29.392Z,-0.47
2023-03-16T00:09:30.260Z,-0.46
2023-03-16T00:10:31.142Z,-0.46
2023-03-16T00:11:32.025Z,-0.49
2023-03-16T00:12:32.949Z,-0.51
2023-03-16T00:13:33.797Z,-0.51
2023-03-16T00:14:34.718Z,-0.54
2023-03-16T00:15:35.621Z,-0.54
2023-03-16T00:16:36.630Z,-0.54
2023-03-16T00:17:36.983Z,-0.54
2023-03-16T00:18:37.872Z,-0.54
2023-03-16T00:19:38.791Z,-0.57
2023-03-16T00:20:39.654Z,-0.60
2023-03-16T00:21:40.592Z,-0.60
2023-03-16T00:22:41.438Z,-0.58
2023-03-16T00:23:42.330Z,-0.62
2023-03-16T00:24:43.214Z,-0.60
2023-03-16T00:25:44.097Z,-0.62
2023-03-16T00:26:44.986Z,-0.62
2023-03-16T00:27:45.924Z,-0.64
2023-03-16T00:28:46.758Z,-0.65
2023-03-16T00:29:47.654Z,-0.67
2023-03-16T00:30:48.535Z,-0.70
2023-03-16T00:31:49.556Z,-0.65
2023-03-16T00:32:49.988Z,-0.70
2023-03-16T00:33:50.870Z,-0.69
2023-03-16T00:34:51.728Z,-0.70
2023-03-16T00:35:52.697Z,-0.72
2023-03-16T00:36:53.556Z,-0.73
2023-03-16T00:37:54.462Z,-0.72
2023-03-16T00:38:55.326Z,-0.75
2023-03-16T00:39:56.521Z,-0.78
2023-03-16T00:40:56.918Z,-0.76
2023-03-16T00:41:57.793Z,-0.76
2023-03-16T00:42:58.722Z,-0.79
2023-03-16T00:43:59.560Z,-0.79
2023-03-16T00:45:00.463Z,-0.80
2023-03-16T00:46:01.497Z,-0.82
2023-03-16T00:47:01.836Z,-0.85
2023-03-16T00:48:02.722Z,-0.83
2023-03-16T00:49:03.612Z,-0.85
2023-03-16T00:50:04.499Z,-0.83
2023-03-16T00:51:05.472Z,-0.85
2023-03-16T00:52:06.404Z,-0.89
2023-03-16T00:53:07.253Z,-0.89
2023-03-16T00:54:08.140Z,-0.89
2023-03-16T00:55:09.040Z,-0.89
2023-03-16T00:56:09.919Z,-0.92
2023-03-16T00:57:10.798Z,-0.91
2023-03-16T00:58:11.737Z,-0.92
2023-03-16T00:59:12.584Z,-0.94
2023-03-16T01:00:13.480Z,-0.91
2023-03-16T01:01:14.426Z,-0.91
2023-03-16T01:02:15.282Z,-0.91
2023-03-16T01:03:16.240Z,-0.94
2023-03-16T01:04:17.150Z,-0.94
2023-03-16T01:05:18.000Z,-0.95
2023-03-16T01:06:18.883Z,-0.97
2023-03-16T01:07:19.771Z,-0.99
2023-03-16T01:08:20.651Z,-1.02
2023-03-16T01:09:21.535Z,-1.05
2023-03-16T01:10:22.482Z,-1.05
2023-03-16T01:11:23.337Z,-1.05
2023-03-16T01:12:24.223Z,-1.07
2023-03-16T01:13:25.122Z,-1.07
2023-03-16T01:14:25.976Z,-1.07
2023-03-16T01:15:26.868Z,-1.12
2023-03-16T01:16:27.825Z,-1.10
2023-03-16T01:17:28.645Z,-1.10
2023-03-16T01:18:29.529Z,-1.15
2023-03-16T01:19:30.412Z,-1.13
2023-03-16T01:20:31.303Z,-1.16
2023-03-16T01:21:32.184Z,-1.16
2023-03-16T01:22:33.062Z,-1.17
2023-03-16T01:23:33.995Z,-1.17
2023-03-16T01:24:34.845Z,-1.19
2023-03-16T01:25:35.736Z,-1.17
2023-03-16T01:26:36.621Z,-1.19
2023-03-16T01:27:37.510Z,-1.16
2023-03-16T01:28:38.419Z,-1.17
2023-03-16T01:29:39.332Z,-1.16
2023-03-16T01:30:40.196Z,-1.16
2023-03-16T01:31:41.059Z,-1.16
2023-03-16T01:32:42.043Z,-1.15
2023-03-16T01:33:42.917Z,-1.15
2023-03-16T01:34:43.799Z,-1.13
2023-03-16T01:35:44.776Z,-1.12
2023-03-16T01:36:45.609Z,-1.12
2023-03-16T01:37:46.494Z,-1.13
2023-03-16T01:38:47.390Z,-1.12
2023-03-16T01:39:48.265Z,-1.13
2023-03-16T01:40:49.170Z,-1.12
2023-03-16T01:41:50.076Z,-1.12
2023-03-16T01:42:50.947Z,-1.10
2023-03-16T01:43:51.871Z,-1.10
2023-03-16T01:44:52.704Z,-1.10
2023-03-16T01:45:53.615Z,-1.10
2023-03-16T01:46:54.477Z,-1.10
2023-03-16T01:47:55.364Z,-1.12
2023-03-16T01:48:56.283Z,-1.12
2023-03-16T01:49:57.138Z,-1.13
2023-03-16T01:50:58.028Z,-1.12
2023-03-16T01:51:58.921Z,-1.09
2023-03-16T01:52:59.792Z,-1.12
2023-03-16T01:54:00.680Z,-1.12
2023-03-16T01:55:01.615Z,-1.12
2023-03-16T01:56:02.465Z,-1.12
2023-03-16T01:57:03.348Z,-1.10
2023-03-16T01:58:04.240Z,-1.09
2023-03-16T01:59:05.152Z,-1.10
2023-03-16T02:00:06.009Z,-1.10
2023-03-16T02:01:07.004Z,-1.10
2023-03-16T02:02:07.502Z,-1.13
2023-03-16T02:03:08.368Z,-1.15
2023-03-16T02:04:09.300Z,-1.16
2023-03-16T02:05:09.758Z,-1.19
2023-03-16T02:06:10.702Z,-1.20
2023-03-16T02:07:11.637Z,-1.22
2023-03-16T02:08:12.574Z,-1.25
2023-03-16T02:09:13.411Z,-1.23
2023-03-16T02:10:14.286Z,-1.23
2023-03-16T02:11:15.181Z,-1.27
2023-03-16T02:12:16.056Z,-1.28
2023-03-16T02:13:16.940Z,-1.30
2023-03-16T02:14:17.889Z,-1.33
2023-03-16T02:15:18.725Z,-1.35
2023-03-16T02:16:19.867Z,-1.37
2023-03-16T02:17:20.300Z,-1.41
2023-03-16T02:18:21.185Z,-1.45
2023-03-16T02:19:22.062Z,-1.48
2023-03-16T02:20:22.950Z,-1.48
2023-03-16T02:21:23.883Z,-1.52
2023-03-16T02:22:24.731Z,-1.52
2023-03-16T02:23:25.612Z,-1.52
2023-03-16T02:24:26.493Z,-1.55
2023-03-16T02:25:27.377Z,-1.56
2023-03-16T02:26:28.266Z,-1.56
2023-03-16T02:27:29.209Z,-1.59
2023-03-16T02:28:30.040Z,-1.66
2023-03-16T02:29:30.950Z,-1.62
2023-03-16T02:30:31.805Z,-1.62
2023-03-16T02:31:32.761Z,-1.64
2023-03-16T02:32:33.649Z,-1.61
2023-03-16T02:33:34.510Z,-1.64
2023-03-16T02:34:35.446Z,-1.66
2023-03-16T02:35:36.305Z,-1.64
2023-03-16T02:36:37.180Z,-1.62
2023-03-16T02:37:38.063Z,-1.64
2023-03-16T02:38:38.948Z,-1.62
2023-03-16T02:39:39.836Z,-1.64
2023-03-16T02:40:40.755Z,-1.66
2023-03-16T02:41:41.628Z,-1.70
2023-03-16T02:42:42.526Z,-1.72
2023-03-16T02:43:43.403Z,-1.74
2023-03-16T02:44:44.299Z,-1.79
2023-03-16T02:45:45.163Z,-1.76
2023-03-16T02:46:46.180Z,-1.80
2023-03-16T02:47:47.061Z,-1.80
2023-03-16T02:48:47.904Z,-1.87
2023-03-16T02:49:48.784Z,-1.85
2023-03-16T02:50:49.670Z,-1.88
2023-03-16T02:51:50.563Z,-1.88
2023-03-16T02:52:51.443Z,-1.88
2023-03-16T02:53:52.327Z,-1.90
2023-03-16T02:54:53.203Z,-1.88
2023-03-16T02:55:54.142Z,-1.91
2023-03-16T02:56:54.994Z,-1.90
2023-03-16T02:57:55.883Z,-1.91
2023-03-16T02:58:56.850Z,-1.91
2023-03-16T02:59:57.762Z,-1.92
2023-03-16T03:00:58.614Z,-1.91
2023-03-16T03:01:59.566Z,-1.92
2023-03-16T03:03:00.476Z,-1.91
2023-03-16T03:04:01.322Z,-1.90
2023-03-16T03:05:02.217Z,-1.92
2023-03-16T03:06:03.110Z,-1.90
2023-03-16T03:07:03.981Z,-1.88
2023-03-16T03:08:04.918Z,-1.91
2023-03-16T03:09:05.775Z,-1.88
2023-03-16T03:10:06.656Z,-1.90
2023-03-16T03:11:07.525Z,-1.88
2023-03-16T03:12:08.416Z,-1.88
2023-03-16T03:13:09.311Z,-1.91
2023-03-16T03:14:10.189Z,-1.91
2023-03-16T03:15:11.133Z,-1.88
2023-03-16T03:16:11.997Z,-1.90
2023-03-16T03:17:12.850Z,-1.92
2023-03-16T03:18:13.735Z,-1.92
2023-03-16T03:19:14.634Z,-1.91
2023-03-16T03:20:15.523Z,-1.92
2023-03-16T03:21:16.447Z,-1.94
2023-03-16T03:22:17.301Z,-1.94
2023-03-16T03:23:18.179Z,-1.95
2023-03-16T03:24:19.063Z,-1.97
2023-03-16T03:25:19.943Z,-1.97
2023-03-16T03:26:20.854Z,-1.98
2023-03-16T03:27:21.742Z,-1.98
2023-03-16T03:28:22.684Z,-1.98
2023-03-16T03:29:23.500Z,-1.98
2023-03-16T03:30:24.410Z,-1.98
2023-03-16T03:31:25.319Z,-2.00
2023-03-16T03:32:26.196Z,-1.98
2023-03-16T03:33:27.044Z,-1.98
2023-03-16T03:34:27.934Z,-1.98
2023-03-16T03:35:28.853Z,-1.97
2023-03-16T03:36:29.697Z,-1.98
2023-03-16T03:37:30.658Z,-1.95
2023-03-16T03:38:31.496Z,-1.97
2023-03-16T03:39:32.385Z,-1.98
2023-03-16T03:40:33.276Z,-2.02
2023-03-16T03:41:34.155Z,-2.02
2023-03-16T03:42:35.054Z,-1.98
2023-03-16T03:43:35.932Z,-2.05
2023-03-16T03:44:36.855Z,-2.03
2023-03-16T03:45:37.789Z,-2.03
2023-03-16T03:46:38.870Z,-2.05
2023-03-16T03:47:39.278Z,-2.06
2023-03-16T03:48:40.158Z,-2.08
2023-03-16T03:49:41.048Z,-2.09
2023-03-16T03:50:41.932Z,-2.09
2023-03-16T03:51:42.860Z,-2.12
2023-03-16T03:52:43.707Z,-2.12
2023-03-16T03:53:44.596Z,-2.16
2023-03-16T03:54:45.484Z,-2.16
2023-03-16T03:55:46.376Z,-2.20
2023-03-16T03:56:47.254Z,-2.20
2023-03-16T03:57:48.139Z,-2.23
2023-03-16T03:58:49.065Z,-2.21
2023-03-16T03:59:49.911Z,-2.21
2023-03-16T04:00:50.815Z,-2.21
2023-03-16T04:01:51.760Z,-2.18
2023-03-16T04:02:52.828Z,-2.20
2023-03-16T04:03:53.261Z,-2.18
2023-03-16T04:04:54.148Z,-2.18
2023-03-16T04:05:55.033Z,-2.20
2023-03-16T04:06:55.965Z,-2.18
2023-03-16T04:07:56.827Z,-2.20
2023-03-16T04:08:57.716Z,-2.21
2023-03-16T04:09:58.598Z,-2.24
2023-03-16T04:10:59.498Z,-2.24
2023-03-16T04:12:00.375Z,-2.27
2023-03-16T04:13:01.317Z,-2.27
2023-03-16T04:14:02.177Z,-2.27
2023-03-16T04:15:03.059Z,-2.27
2023-03-16T04:16:03.963Z,-2.27
2023-03-16T04:17:04.973Z,-2.30
2023-03-16T04:18:05.380Z,-2.30
2023-03-16T04:19:06.310Z,-2.35
2023-03-16T04:20:07.161Z,-2.35
2023-03-16T04:21:08.047Z,-2.39
2023-03-16T04:22:08.927Z,-2.37
2023-03-16T04:23:09.822Z,-2.37
2023-03-16T04:24:10.697Z,-2.37
2023-03-16T04:25:11.675Z,-2.40
2023-03-16T04:26:12.568Z,-2.40
2023-03-16T04:27:13.418Z,-2.39
2023-03-16T04:28:14.301Z,-2.42
2023-03-16T04:29:15.198Z,-2.42
2023-03-16T04:30:16.074Z,-2.40
2023-03-16T04:31:17.151Z,-2.40
2023-03-16T04:32:17.505Z,-2.43
2023-03-16T04:33:18.390Z,-2.48
2023-03-16T04:34:19.272Z,-2.52
2023-03-16T04:35:20.180Z,-2.55
2023-03-16T04:36:21.044Z,-2.58
2023-03-16T04:37:21.924Z,-2.58
2023-03-16T04:38:22.813Z,-2.60
2023-03-16T04:39:23.687Z,-2.60
2023-03-16T04:40:24.582Z,-2.58
2023-03-16T04:41:25.453Z,-2.61
2023-03-16T04:42:26.337Z,-2.63
2023-03-16T04:43:27.226Z,-2.64
2023-03-16T04:44:28.108Z,-2.64
2023-03-16T04:45:28.996Z,-2.61
2023-03-16T04:46:29.979Z,-2.64
2023-03-16T04:47:30.820Z,-2.63
2023-03-16T04:48:31.714Z,-2.64
2023-03-16T04:49:32.594Z,-2.64
2023-03-16T04:50:33.473Z,-2.71
2023-03-16T04:51:34.355Z,-2.71
2023-03-16T04:52:35.249Z,-2.78
2023-03-16T04:53:36.144Z,-2.81
2023-03-16T04:54:37.021Z,-2.84
2023-03-16T04:55:37.906Z,-2.82
2023-03-16T04:56:38.787Z,-2.84
2023-03-16T04:57:39.663Z,-2.84
2023-03-16T04:58:40.579Z,-2.82
2023-03-16T04:59:41.445Z,-2.79
2023-03-16T05:00:42.335Z,-2.84
2023-03-16T05:01:43.235Z,-2.81
2023-03-16T05:02:44.079Z,-2.79
2023-03-16T05:03:44.950Z,-2.81
2023-03-16T05:04:45.857Z,-2.81
2023-03-16T05:05:46.826Z,-2.81
2023-03-16T05:06:47.670Z,-2.78
2023-03-16T05:07:48.555Z,-2.81
2023-03-16T05:08:49.466Z,-2.81
2023-03-16T05:09:50.293Z,-2.81
2023-03-16T05:10:51.139Z,-2.78
2023-03-16T05:11:51.956Z,-2.77
2023-03-16T05:12:52.788Z,-2.77
2023-03-16T05:13:53.615Z,-2.78
2023-03-16T05:14:54.447Z,-2.79
2023-03-16T05:15:55.337Z,-2.81
2023-03-16T05:16:56.180Z,-2.85
2023-03-16T05:17:56.999Z,-2.89
2023-03-16T05:18:57.817Z,-2.94
2023-03-16T05:19:58.637Z,-2.94
2023-03-16T05:20:59.486Z,-2.99
2023-03-16T05:22:00.321Z,-3.03
2023-03-16T05:23:01.162Z,-3.00
2023-03-16T05:24:01.995Z,-3.00
2023-03-16T05:25:02.847Z,-2.99
2023-03-16T05:26:03.675Z,-2.97
2023-03-16T05:27:04.508Z,-2.97
2023-03-16T05:28:05.335Z,-2.92
2023-03-16T05:29:06.169Z,-2.92
2023-03-16T05:30:07.018Z,-2.91
2023-03-16T05:31:07.973Z,-2.89
2023-03-16T05:32:08.884Z,-2.91
2023-03-16T05:33:09.729Z,-2.88
2023-03-16T05:34:10.554Z,-2.86
2023-03-16T05:35:11.399Z,-2.85
2023-03-16T05:36:12.258Z,-2.85
2023-03-16T05:37:13.063Z,-2.82
2023-03-16T05:38:13.892Z,-2.82
2023-03-16T05:39:14.735Z,-2.81
2023-03-16T05:40:15.551Z,-2.79
2023-03-16T05:41:16.398Z,-2.79
2023-03-16T05:42:17.217Z,-2.78
2023-03-16T05:43:17.722Z,-2.77
2023-03-16T05:44:18.552Z,-2.77
2023-03-16T05:45:19.387Z,-2.77
2023-03-16T05:46:20.925Z,-2.73
2023-03-16T05:47:20.818Z,-2.78
2023-03-16T05:48:21.626Z,-2.78
2023-03-16T05:49:22.469Z,-2.79
2023-03-16T05:50:23.294Z,-2.79
2023-03-16T05:51:24.130Z,-2.82
2023-03-16T05:52:24.952Z,-2.84
2023-03-16T05:53:25.791Z,-2.85
2023-03-16T05:54:26.629Z,-2.92
2023-03-16T05:55:27.475Z,-2.99
2023-03-16T05:56:28.292Z,-3.05
2023-03-16T05:57:29.112Z,-3.06
2023-03-16T05:58:29.945Z,-3.05
2023-03-16T05:59:30.805Z,-3.06
2023-03-16T06:00:31.628Z,-3.06
2023-03-16T06:01:32.457Z,-3.03
2023-03-16T06:02:33.361Z,-3.02
2023-03-16T06:03:34.262Z,-3.03
2023-03-16T06:04:35.073Z,-3.00
2023-03-16T06:05:35.915Z,-3.02
2023-03-16T06:06:36.737Z,-2.99
2023-03-16T06:07:37.606Z,-2.97
2023-03-16T06:08:38.409Z,-2.94
2023-03-16T06:09:39.251Z,-2.91
2023-03-16T06:10:40.083Z,-2.89
2023-03-16T06:11:40.917Z,-2.85
2023-03-16T06:12:41.743Z,-2.84
2023-03-16T06:13:42.572Z,-2.81
2023-03-16T06:14:43.415Z,-2.78
2023-03-16T06:15:44.244Z,-2.73
2023-03-16T06:16:45.140Z,-2.71
2023-03-16T06:17:45.921Z,-2.67
2023-03-16T06:18:46.737Z,-2.66
2023-03-16T06:19:47.577Z,-2.61
2023-03-16T06:20:48.397Z,-2.58
2023-03-16T06:21:49.269Z,-2.55
2023-03-16T06:22:50.072Z,-2.52
2023-03-16T06:23:50.907Z,-2.50
2023-03-16T06:24:51.742Z,-2.48
2023-03-16T06:25:52.573Z,-2.46
2023-03-16T06:26:53.394Z,-2.46
2023-03-16T06:27:54.222Z,-2.45
2023-03-16T06:28:55.065Z,-2.45
2023-03-16T06:29:55.914Z,-2.43
2023-03-16T06:30:56.752Z,-2.46
2023-03-16T06:31:57.627Z,-2.46
2023-03-16T06:32:58.438Z,-2.48
2023-03-16T06:33:59.235Z,-2.48
2023-03-16T06:35:00.059Z,-2.48
2023-03-16T06:36:00.947Z,-2.49
2023-03-16T06:37:01.737Z,-2.46
2023-03-16T06:38:02.567Z,-2.46
2023-03-16T06:39:03.408Z,-2.43
2023-03-16T06:40:04.247Z,-2.40
2023-03-16T06:41:05.065Z,-2.39
2023-03-16T06:42:05.905Z,-2.32
2023-03-16T06:43:06.726Z,-2.27
2023-03-16T06:44:07.555Z,-2.21
2023-03-16T06:45:08.387Z,-2.13
2023-03-16T06:46:09.398Z,-2.05
2023-03-16T06:47:10.199Z,-1.94
2023-03-16T06:48:11.049Z,-1.84
2023-03-16T06:49:11.859Z,-1.74
2023-03-16T06:50:12.747Z,-1.58
2023-03-16T06:51:15.702Z,-1.37
2023-03-16T06:52:14.522Z,-1.16
2023-03-16T06:53:15.345Z,-0.94
2023-03-16T06:54:16.158Z,-0.65
2023-03-16T06:55:16.999Z,-0.46
2023-03-16T06:56:17.858Z,-0.26
2023-03-16T06:57:18.671Z,-0.04
2023-03-16T06:58:19.500Z,0.17
2023-03-16T06:59:20.329Z,0.26
2023-03-16T07:00:21.168Z,0.50
2023-03-16T07:01:22.014Z,0.80
2023-03-16T07:02:22.842Z,1.14
2023-03-16T07:03:23.673Z,1.45
2023-03-16T07:04:24.590Z,1.69
2023-03-16T07:05:25.410Z,1.91
2023-03-16T07:06:26.262Z,2.12
2023-03-16T07:07:27.077Z,2.23
2023-03-16T07:08:27.896Z,2.35
2023-03-16T07:09:28.748Z,2.52
2023-03-16T07:10:29.998Z,2.60
2023-03-16T07:11:30.495Z,2.71
2023-03-16T07:12:31.325Z,2.82
2023-03-16T07:13:32.163Z,2.97
2023-03-16T07:14:32.979Z,3.18
2023-03-16T07:15:33.816Z,3.32
2023-03-16T07:16:34.727Z,3.48
2023-03-16T07:17:35.509Z,3.66
2023-03-16T07:18:36.370Z,3.79
2023-03-16T07:19:37.161Z,3.98
2023-03-16T07:20:38.017Z,4.12
2023-03-16T07:21:38.855Z,4.16
2023-03-16T07:22:39.703Z,4.33
2023-03-16T07:23:40.531Z,4.45
2023-03-16T07:24:41.360Z,4.65
2023-03-16T07:25:42.214Z,4.82
2023-03-16T07:26:43.050Z,4.96
2023-03-16T07:27:43.898Z,4.94
2023-03-16T07:28:44.707Z,5.10
2023-03-16T07:29:45.579Z,5.24
2023-03-16T07:31:02.392Z,5.36
2023-03-16T07:31:48.180Z,5.43
2023-03-16T07:32:48.012Z,5.65
2023-03-16T07:33:48.808Z,5.86
2023-03-16T07:34:49.623Z,6.15
2023-03-16T07:35:50.525Z,6.38
2023-03-16T07:36:51.321Z,6.48
2023-03-16T07:37:52.151Z,6.38
2023-03-16T07:38:52.992Z,6.31
2023-03-16T07:39:53.811Z,6.14
2023-03-16T07:40:54.656Z,5.96
2023-03-16T07:41:55.469Z,5.85
2023-03-16T07:42:56.302Z,5.71
2023-03-16T07:43:57.131Z,5.72
2023-03-16T07:44:57.972Z,5.71
2023-03-16T07:45:58.902Z,5.75
2023-03-16T07:46:59.692Z,5.71
2023-03-16T07:48:00.537Z,5.75
2023-03-16T07:49:01.370Z,5.86
2023-03-16T07:50:02.178Z,6.04
2023-03-16T07:51:03.032Z,6.28
2023-03-16T07:52:03.846Z,6.37
2023-03-16T07:53:04.693Z,6.51
2023-03-16T07:54:05.524Z,6.61
2023-03-16T07:55:06.356Z,6.66
2023-03-16T07:56:07.180Z,6.76
2023-03-16T07:57:08.025Z,6.91
2023-03-16T07:58:08.835Z,7.03
2023-03-16T07:59:09.666Z,7.06
2023-03-16T08:00:10.498Z,6.98
2023-03-16T08:01:11.319Z,6.84
2023-03-16T08:02:12.306Z,6.79
2023-03-16T08:03:13.154Z,6.69
2023-03-16T08:04:13.984Z,6.64
2023-03-16T08:05:14.782Z,6.64
2023-03-16T08:06:15.610Z,6.56
2023-03-16T08:07:16.457Z,6.55
2023-03-16T08:08:17.286Z,6.49
2023-03-16T08:09:18.172Z,6.44
2023-03-16T08:10:18.948Z,6.31
2023-03-16T08:11:19.782Z,6.31
2023-03-16T08:12:20.625Z,6.30
2023-03-16T08:13:21.438Z,6.27
2023-03-16T08:14:22.270Z,6.30
2023-03-16T08:15:23.114Z,6.36
2023-03-16T08:16:24.006Z,6.37
2023-03-16T08:17:24.804Z,6.44
2023-03-16T08:18:25.638Z,6.44
2023-03-16T08:19:26.496Z,6.46
2023-03-16T08:20:27.722Z,6.38
2023-03-16T08:21:28.081Z,6.37
2023-03-16T08:22:28.920Z,6.38
2023-03-16T08:23:29.739Z,6.43
2023-03-16T08:24:30.574Z,6.44
2023-03-16T08:25:31.391Z,6.41
2023-03-16T08:26:32.226Z,6.46
2023-03-16T08:27:33.072Z,6.55
2023-03-16T08:28:33.924Z,6.58
2023-03-16T08:29:34.766Z,6.61
2023-03-16T08:30:35.579Z,6.66
2023-03-16T08:31:36.529Z,6.71
2023-03-16T08:32:37.371Z,6.76
2023-03-16T08:33:38.162Z,6.77
2023-03-16T08:34:39.010Z,6.76
2023-03-16T08:35:39.822Z,6.73
2023-03-16T08:36:40.657Z,6.71
2023-03-16T08:37:41.470Z,6.70
2023-03-16T08:38:44.054Z,6.64
2023-03-16T08:39:42.899Z,6.55
2023-03-16T08:40:43.728Z,6.54
2023-03-16T08:41:44.567Z,6.51
2023-03-16T08:42:45.388Z,6.49
2023-03-16T08:43:46.219Z,6.46
2023-03-16T08:44:47.048Z,6.43
2023-03-16T08:45:47.881Z,6.41
2023-03-16T08:46:48.805Z,6.34
2023-03-16T08:47:49.674Z,6.31
2023-03-16T08:48:50.501Z,6.27
2023-03-16T08:49:51.349Z,6.15
2023-03-16T08:50:52.162Z,6.04
2023-03-16T08:51:52.987Z,5.94
2023-03-16T08:52:53.824Z,5.86
2023-03-16T08:53:54.643Z,5.85
2023-03-16T08:55:02.811Z,5.86
2023-03-16T08:55:57.186Z,5.93
2023-03-16T08:56:57.025Z,5.94
2023-03-16T08:57:57.853Z,5.99
2023-03-16T08:58:58.674Z,6.08
2023-03-16T08:59:59.500Z,6.12
2023-03-16T09:01:00.326Z,6.18
2023-03-16T09:02:01.178Z,6.22
2023-03-16T09:03:01.985Z,6.30
2023-03-16T09:04:02.862Z,6.36
2023-03-16T09:05:03.695Z,6.36
2023-03-16T09:06:04.483Z,6.33
2023-03-16T09:07:09.190Z,6.28
2023-03-16T09:08:05.997Z,6.17
2023-03-16T09:09:06.828Z,6.06
2023-03-16T09:10:07.693Z,5.96
2023-03-16T09:11:08.491Z,5.90
2023-03-16T09:12:09.311Z,5.86
2023-03-16T09:13:10.152Z,5.90
2023-03-16T09:14:10.978Z,5.90
2023-03-16T09:15:11.807Z,5.91
2023-03-16T09:16:12.695Z,5.89
2023-03-16T09:17:13.488Z,5.85
2023-03-16T09:18:14.327Z,5.82
2023-03-16T09:19:15.157Z,5.85
2023-03-16T09:20:22.510Z,5.90
2023-03-16T09:21:17.700Z,5.96
2023-03-16T09:22:17.534Z,6.01
2023-03-16T09:23:18.422Z,6.03
2023-03-16T09:24:19.197Z,6.08
2023-03-16T09:25:20.041Z,6.15
2023-03-16T09:26:20.855Z,6.21
2023-03-16T09:27:21.747Z,6.28
2023-03-16T09:28:22.560Z,6.33
2023-03-16T09:29:23.368Z,6.40
2023-03-16T09:30:24.278Z,6.43
2023-03-16T09:31:25.182Z,6.51
2023-03-16T09:32:25.985Z,6.54
2023-03-16T09:33:26.829Z,6.61
2023-03-16T09:34:28.544Z,6.64
2023-03-16T09:35:28.578Z,6.62
2023-03-16T09:36:28.991Z,6.62
2023-03-16T09:37:39.989Z,6.62
2023-03-16T09:38:31.553Z,6.62
2023-03-16T09:39:31.381Z,6.59
2023-03-16T09:40:32.239Z,6.59
2023-03-16T09:41:33.033Z,6.59
2023-03-16T09:42:33.865Z,6.56
2023-03-16T09:43:34.708Z,6.55
2023-03-16T09:44:35.524Z,6.58
2023-03-16T09:45:36.456Z,6.59
2023-03-16T09:46:37.256Z,6.61
2023-03-16T09:47:38.071Z,6.67
2023-03-16T09:48:38.922Z,6.71
2023-03-16T09:49:39.733Z,6.74
2023-03-16T09:50:48.429Z,6.77
2023-03-16T09:51:42.278Z,6.85
2023-03-16T09:52:42.107Z,6.88
2023-03-16T09:53:43.668Z,6.91
2023-03-16T09:54:43.722Z,6.94
2023-03-16T09:55:44.542Z,6.95
2023-03-16T09:56:45.387Z,6.97
2023-03-16T09:57:46.233Z,6.99
2023-03-16T09:58:47.054Z,7.02
2023-03-16T09:59:47.873Z,7.03
2023-03-16T10:00:48.772Z,7.05
2023-03-16T10:01:49.560Z,7.09
2023-03-16T10:02:50.400Z,7.12
2023-03-16T10:03:51.242Z,7.15
2023-03-16T10:04:52.070Z,7.21
2023-03-16T10:05:52.962Z,7.23
2023-03-16T10:06:53.728Z,7.27
2023-03-16T10:07:54.559Z,7.30
2023-03-16T10:08:55.385Z,7.34
2023-03-16T10:09:56.213Z,7.42
2023-03-16T10:10:57.053Z,7.40
2023-03-16T10:11:57.884Z,7.48
2023-03-16T10:12:59.212Z,7.52
2023-03-16T10:13:59.538Z,7.55
2023-03-16T10:15:00.432Z,7.61
2023-03-16T10:16:01.215Z,7.68
2023-03-16T10:17:02.048Z,7.69
2023-03-16T10:18:02.875Z,7.74
2023-03-16T10:19:03.714Z,7.79
2023-03-16T10:20:04.543Z,7.82
2023-03-16T10:21:05.398Z,7.85
2023-03-16T10:22:06.191Z,7.85
2023-03-16T10:23:07.030Z,7.89
2023-03-16T10:24:07.861Z,7.87
2023-03-16T10:25:08.699Z,7.86
2023-03-16T10:26:09.524Z,7.79
2023-03-16T10:27:10.358Z,7.71
2023-03-16T10:28:11.196Z,7.67
2023-03-16T10:29:12.071Z,7.58
2023-03-16T10:30:12.883Z,7.52
2023-03-16T10:31:13.711Z,7.49
2023-03-16T10:32:14.541Z,7.43
2023-03-16T10:33:15.453Z,7.43
2023-03-16T10:34:16.280Z,7.43
2023-03-16T10:35:17.111Z,7.42
2023-03-16T10:36:17.974Z,7.45
2023-03-16T10:37:18.753Z,7.48
2023-03-16T10:38:19.599Z,7.52
2023-03-16T10:39:20.436Z,7.52
2023-03-16T10:40:21.345Z,7.55
2023-03-16T10:41:22.145Z,7.57
2023-03-16T10:42:22.960Z,7.61
2023-03-16T10:43:23.796Z,7.64
2023-03-16T10:44:24.637Z,7.69
2023-03-16T10:45:25.494Z,7.61
2023-03-16T10:46:26.550Z,7.61
2023-03-16T10:47:26.940Z,7.61
2023-03-16T10:48:27.740Z,7.64
2023-03-16T10:49:28.577Z,7.67
2023-03-16T10:50:29.546Z,7.67
2023-03-16T10:51:29.917Z,7.71
2023-03-16T10:52:30.725Z,7.71
2023-03-16T10:53:31.593Z,7.71
2023-03-16T10:54:32.413Z,7.71
2023-03-16T10:55:33.221Z,7.69
2023-03-16T10:56:34.044Z,7.69
2023-03-16T10:57:34.883Z,7.68
2023-03-16T10:58:35.725Z,7.64
2023-03-16T10:59:36.570Z,7.64
2023-03-16T11:00:37.362Z,7.64
2023-03-16T11:01:38.217Z,7.68
2023-03-16T11:02:39.026Z,7.68
2023-03-16T11:03:39.864Z,7.72
2023-03-16T11:04:40.809Z,7.75
2023-03-16T11:05:41.603Z,7.79
2023-03-16T11:06:42.446Z,7.83
2023-03-16T11:07:43.240Z,7.86
2023-03-16T11:08:44.081Z,7.90
2023-03-16T11:09:44.940Z,7.93
2023-03-16T11:10:55.280Z,7.98
2023-03-16T11:11:47.481Z,8.04
2023-03-16T11:12:47.300Z,8.10
2023-03-16T11:13:48.138Z,8.15
2023-03-16T11:14:48.973Z,8.18
2023-03-16T11:15:49.804Z,8.25
2023-03-16T11:16:50.646Z,8.29
2023-03-16T11:17:51.488Z,8.36
2023-03-16T11:18:52.321Z,8.40
2023-03-16T11:19:53.143Z,8.43
2023-03-16T11:20:53.970Z,8.45
2023-03-16T11:21:54.851Z,8.48
2023-03-16T11:22:55.618Z,8.52
2023-03-16T11:23:56.491Z,8.52
2023-03-16T11:24:57.315Z,8.53
2023-03-16T11:25:58.135Z,8.55
2023-03-16T11:26:58.966Z,8.56
2023-03-16T11:27:59.787Z,8.52
2023-03-16T11:29:00.629Z,8.50
2023-03-16T11:30:01.456Z,8.48
2023-03-16T11:31:02.297Z,8.44
2023-03-16T11:32:03.098Z,8.43
2023-03-16T11:33:04.040Z,8.44
2023-03-16T11:34:04.900Z,8.41
2023-03-16T11:35:05.728Z,8.43
2023-03-16T11:36:06.572Z,8.40
2023-03-16T11:37:07.398Z,8.38
2023-03-16T11:38:08.201Z,8.38
2023-03-16T11:39:09.045Z,8.37
2023-03-16T11:40:10.462Z,8.37
2023-03-16T11:41:10.791Z,8.37
2023-03-16T11:42:11.625Z,8.37
2023-03-16T11:43:12.440Z,8.38
2023-03-16T11:44:13.284Z,8.37
2023-03-16T11:45:14.135Z,8.38
2023-03-16T11:46:15.086Z,8.36
2023-03-16T11:47:15.930Z,8.37
2023-03-16T11:48:16.746Z,8.38
2023-03-16T11:49:17.568Z,8.41
2023-03-16T11:50:18.401Z,8.44
2023-03-16T11:51:19.229Z,8.47
2023-03-16T11:52:20.301Z,8.55
2023-03-16T11:53:20.644Z,8.55
2023-03-16T11:54:21.470Z,8.56
2023-03-16T11:55:22.278Z,8.59
2023-03-16T11:56:23.116Z,8.62
2023-03-16T11:57:23.958Z,8.65
2023-03-16T11:58:24.783Z,8.66
2023-03-16T11:59:25.612Z,8.66
2023-03-16T12:00:26.455Z,8.65
2023-03-16T12:01:28.541Z,8.65
2023-03-16T12:02:28.137Z,8.65
2023-03-16T12:03:28.704Z,8.70
2023-03-16T12:04:29.143Z,8.71
2023-03-16T12:05:30.299Z,8.74
2023-03-16T12:06:30.878Z,8.80
2023-03-16T12:07:31.738Z,8.81
2023-03-16T12:08:32.578Z,8.83
2023-03-16T12:09:33.388Z,8.87
2023-03-16T12:10:34.210Z,8.89
2023-03-16T12:11:35.040Z,8.92
2023-03-16T12:12:35.868Z,8.94
2023-03-16T12:13:36.705Z,8.98
2023-03-16T12:14:37.551Z,9.01
2023-03-16T12:15:38.387Z,9.01
2023-03-16T12:16:48.765Z,9.01
2023-03-16T12:17:40.945Z,9.01
2023-03-16T12:18:40.775Z,9.04
2023-03-16T12:19:41.600Z,9.04
2023-03-16T12:20:42.446Z,9.08
2023-03-16T12:21:43.956Z,9.10
2023-03-16T12:22:43.807Z,9.14
2023-03-16T12:23:44.617Z,9.14
2023-03-16T12:24:45.488Z,9.17
2023-03-16T12:25:46.290Z,9.17
2023-03-16T12:26:47.102Z,9.20
2023-03-16T12:27:47.924Z,9.20
2023-03-16T12:28:48.816Z,9.23
2023-03-16T12:29:49.610Z,9.23
2023-03-16T12:30:50.455Z,9.21
2023-03-16T12:31:51.404Z,9.23
2023-03-16T12:32:52.222Z,9.18
2023-03-16T12:33:53.026Z,9.18
2023-03-16T12:34:53.856Z,9.20
2023-03-16T12:35:54.740Z,9.18
2023-03-16T12:36:55.577Z,9.18
2023-03-16T12:37:56.419Z,9.18
2023-03-16T12:38:57.238Z,9.20
2023-03-16T12:39:58.073Z,9.20
2023-03-16T12:40:58.898Z,9.21
2023-03-16T12:41:59.725Z,9.20
2023-03-16T12:43:00.565Z,9.20
2023-03-16T12:44:01.483Z,9.20
2023-03-16T12:45:02.311Z,9.21
2023-03-16T12:46:03.140Z,9.24
2023-03-16T12:47:03.959Z,9.26
2023-03-16T12:48:04.799Z,9.28
2023-03-16T12:49:05.652Z,9.31
2023-03-16T12:50:06.480Z,9.33
2023-03-16T12:51:07.346Z,9.31
2023-03-16T12:52:10.075Z,9.31
2023-03-16T12:53:08.956Z,9.29
2023-03-16T12:54:09.773Z,9.28
2023-03-16T12:55:10.593Z,9.29
2023-03-16T12:56:11.423Z,9.28
2023-03-16T12:57:12.293Z,9.26
2023-03-16T12:58:13.084Z,9.29
2023-03-16T12:59:13.928Z,9.29
2023-03-16T13:00:14.753Z,9.32
2023-03-16T13:01:15.661Z,9.32
2023-03-16T13:02:16.449Z,9.32
2023-03-16T13:03:17.286Z,9.32
2023-03-16T13:04:18.235Z,9.35
2023-03-16T13:05:19.009Z,9.36
2023-03-16T13:06:19.836Z,9.36
2023-03-16T13:07:20.661Z,9.36
2023-03-16T13:08:21.651Z,9.39
2023-03-16T13:09:22.462Z,9.40
2023-03-16T13:10:23.336Z,9.38
2023-03-16T13:11:24.136Z,9.40
2023-03-16T13:12:24.956Z,9.40
2023-03-16T13:13:25.799Z,9.42
2023-03-16T13:14:26.629Z,9.42
2023-03-16T13:15:27.464Z,9.42